Time;durP1;ratioP1;P1;durP2;ratioP2;P2;SDS_P1;SDS_P2;PMS_P1;PMS_P2;Temp;Humidity;BMP_temperature;BMP_pressure;BME280_temperature;BME280_humidity;BME280_pressure;Samples;Min_cycle;Max_cycle;Signal;HPM_P1;HPM_P2
2023/03/28 00:01:20;;;;;;;4.25;1.40;;;5.30;99.90;;;;;;5117333;28;20035;-83
2023/03/28 00:03:47;;;;;;;3.13;1.33;;;5.20;99.90;;;;;;5097773;28;20438;-83
2023/03/28 00:06:17;;;;;;;4.60;1.20;;;5.20;99.90;;;;;;5099257;28;20046;-83
2023/03/28 00:08:46;;;;;;;5.32;1.30;;;5.20;99.90;;;;;;5098468;28;20109;-82
2023/03/28 00:11:18;;;;;;;4.20;1.33;;;5.20;99.90;;;;;;5097398;28;20436;-82
2023/03/28 00:13:45;;;;;;;4.47;1.48;;;5.20;99.90;;;;;;5097778;28;20101;-82
2023/03/28 00:16:12;;;;;;;3.30;1.20;;;5.20;99.90;;;;;;5115639;28;20339;-82
2023/03/28 00:18:39;;;;;;;8.80;1.90;;;5.10;99.90;;;;;;5099163;28;20046;-82
2023/03/28 00:21:06;;;;;;;4.53;1.50;;;5.10;99.90;;;;;;5099046;28;20450;-82
2023/03/28 00:23:34;;;;;;;5.00;1.50;;;5.10;99.90;;;;;;5097806;28;20046;-82
2023/03/28 00:26:00;;;;;;;6.05;1.33;;;5.10;99.90;;;;;;5099147;28;20047;-82
2023/03/28 00:28:27;;;;;;;4.85;1.30;;;5.10;99.90;;;;;;5098877;28;20058;-82
2023/03/28 00:30:54;;;;;;;3.72;1.13;;;5.10;99.90;;;;;;5115519;28;20036;-82
2023/03/28 00:33:21;;;;;;;8.07;1.55;;;5.00;99.90;;;;;;5098826;28;20035;-82
2023/03/28 00:35:47;;;;;;;6.95;1.40;;;5.00;99.90;;;;;;5097648;28;20042;-82
2023/03/28 00:38:14;;;;;;;3.88;1.15;;;5.00;99.90;;;;;;5081933;28;20457;-82
2023/03/28 00:40:44;;;;;;;5.45;1.70;;;5.00;99.90;;;;;;5099219;28;20042;-81
2023/03/28 00:43:11;;;;;;;8.32;1.40;;;5.00;99.90;;;;;;5097222;28;20104;-82
2023/03/28 00:45:38;;;;;;;2.60;1.17;;;5.00;99.90;;;;;;5098597;28;20039;-82
2023/03/28 00:48:05;;;;;;;2.75;1.20;;;5.10;99.90;;;;;;5098419;28;20393;-82
2023/03/28 00:50:41;;;;;;;4.85;1.48;;;5.10;99.90;;;;;;5115449;28;20054;-82
2023/03/28 00:53:08;;;;;;;3.53;1.40;;;5.00;99.90;;;;;;5098084;28;20050;-82
2023/03/28 00:55:35;;;;;;;3.10;1.20;;;5.00;99.90;;;;;;5104614;28;20447;-82
2023/03/28 00:58:02;;;;;;;6.40;1.38;;;5.00;99.90;;;;;;5078091;28;20138;-82
2023/03/28 01:00:29;;;;;;;3.83;1.10;;;5.10;99.90;;;;;;5076044;28;20385;-82
2023/03/28 01:03:00;;;;;;;5.60;1.63;;;5.10;99.90;;;;;;5080405;28;20054;-82
2023/03/28 01:05:27;;;;;;;8.02;1.50;;;5.20;99.90;;;;;;5098183;28;20126;-82
2023/03/28 01:07:54;;;;;;;2.22;1.08;;;5.20;99.90;;;;;;5098351;28;20039;-82
2023/03/28 01:10:21;;;;;;;6.75;1.13;;;5.20;99.90;;;;;;5096921;28;20051;-82
2023/03/28 01:12:48;;;;;;;6.30;1.30;;;5.20;99.90;;;;;;5098284;28;20118;-82
2023/03/28 01:15:17;;;;;;;2.30;1.00;;;5.20;99.90;;;;;;5080218;28;20078;-82
2023/03/28 01:17:53;;;;;;;4.30;1.15;;;5.20;99.90;;;;;;5097982;28;20424;-82
2023/03/28 01:20:21;;;;;;;5.28;1.63;;;5.20;99.90;;;;;;5115834;28;20040;-82
2023/03/28 01:22:47;;;;;;;2.20;1.10;;;5.20;99.90;;;;;;5079964;28;20374;-82
2023/03/28 01:25:25;;;;;;;6.43;1.50;;;5.30;99.90;;;;;;5097907;28;20067;-82
2023/03/28 01:27:53;;;;;;;3.70;1.17;;;5.30;99.90;;;;;;5098043;28;20040;-82
2023/03/28 01:30:33;;;;;;;3.45;1.27;;;5.30;99.90;;;;;;5096788;28;20052;-82
2023/03/28 01:33:20;;;;;;;7.55;1.85;;;5.30;99.90;;;;;;5083738;28;20067;-82
2023/03/28 01:35:46;;;;;;;4.18;1.27;;;5.30;99.90;;;;;;5079821;28;20431;-82
2023/03/28 01:38:13;;;;;;;3.28;1.27;;;5.30;99.90;;;;;;5097819;28;20063;-82
2023/03/28 01:40:41;;;;;;;4.60;1.42;;;5.30;99.90;;;;;;5097850;28;20119;-82
2023/03/28 01:43:09;;;;;;;9.27;1.00;;;5.30;99.90;;;;;;5079751;28;20120;-82
2023/03/28 01:45:36;;;;;;;6.55;1.25;;;5.30;99.90;;;;;;5080681;28;20039;-82
2023/03/28 01:48:03;;;;;;;4.57;1.25;;;5.30;99.90;;;;;;5097369;28;20382;-81
2023/03/28 01:50:30;;;;;;;5.45;1.25;;;5.20;99.90;;;;;;5094264;28;20116;-82
2023/03/28 01:52:57;;;;;;;5.07;1.42;;;5.20;99.90;;;;;;5096977;28;20456;-81
2023/03/28 01:55:24;;;;;;;2.63;1.00;;;5.20;99.90;;;;;;5096182;28;20047;-82
2023/03/28 01:57:51;;;;;;;5.80;1.00;;;5.20;99.90;;;;;;5080450;28;20371;-82
2023/03/28 02:00:18;;;;;;;2.10;1.08;;;5.20;99.90;;;;;;5080320;28;20090;-82
2023/03/28 02:03:03;;;;;;;4.20;1.55;;;5.20;99.90;;;;;;5113668;28;20049;-82
2023/03/28 02:05:36;;;;;;;2.15;1.08;;;5.20;99.90;;;;;;5081423;28;20166;-82
2023/03/28 02:08:07;;;;;;;6.35;1.27;;;5.20;99.90;;;;;;5097203;28;20054;-82
2023/03/28 02:10:40;;;;;;;10.65;1.30;;;5.20;99.90;;;;;;5080403;28;20044;-82
2023/03/28 02:13:22;;;;;;;3.55;1.35;;;5.20;99.90;;;;;;5115319;28;20470;-82
2023/03/28 02:15:54;;;;;;;2.83;1.30;;;5.20;99.90;;;;;;5096119;28;20076;-82
2023/03/28 02:18:44;;;;;;;4.80;1.55;;;5.20;99.90;;;;;;5097234;28;20044;-82
2023/03/28 02:21:30;;;;;;;5.05;1.20;;;5.30;99.90;;;;;;5100257;28;20057;-82
2023/03/28 02:24:08;;;;;;;5.07;1.70;;;5.30;99.90;;;;;;5097189;28;20058;-82
2023/03/28 02:26:51;;;;;;;8.23;1.75;;;5.30;99.90;;;;;;5082750;28;20063;-82
2023/03/28 02:29:37;;;;;;;3.78;1.27;;;5.20;99.90;;;;;;5098485;28;20117;-83
2023/03/28 02:32:14;;;;;;;6.72;1.33;;;5.30;99.90;;;;;;5082265;28;20126;-82
2023/03/28 02:34:41;;;;;;;4.10;1.45;;;5.30;99.90;;;;;;5079883;28;20075;-82
2023/03/28 02:37:08;;;;;;;7.60;1.73;;;5.30;99.90;;;;;;5113586;28;20046;-82
2023/03/28 02:39:34;;;;;;;4.55;1.40;;;5.20;99.90;;;;;;5097300;28;20519;-82
2023/03/28 02:42:01;;;;;;;4.88;1.40;;;5.20;99.90;;;;;;5082437;28;20047;-82
2023/03/28 02:44:28;;;;;;;5.90;1.48;;;5.20;99.90;;;;;;5083677;28;20047;-82
2023/03/28 02:46:55;;;;;;;4.07;1.25;;;5.20;99.90;;;;;;5100776;28;20035;-82
2023/03/28 02:49:21;;;;;;;4.22;1.30;;;5.20;99.90;;;;;;5117904;28;20109;-82
2023/03/28 02:51:48;;;;;;;5.57;1.40;;;5.10;99.90;;;;;;5100641;28;20093;-82
2023/03/28 02:54:16;;;;;;;3.50;1.17;;;5.10;99.90;;;;;;5083492;28;20071;-81
2023/03/28 02:56:44;;;;;;;4.22;1.27;;;5.10;99.90;;;;;;5082693;28;20097;-82
2023/03/28 02:59:26;;;;;;;3.22;1.10;;;5.10;99.90;;;;;;5100453;28;20051;-83
2023/03/28 03:01:53;;;;;;;4.20;1.25;;;5.20;99.90;;;;;;5100382;28;20058;-82
2023/03/28 03:04:20;;;;;;;5.78;1.35;;;5.20;99.90;;;;;;5117711;28;20044;-83
2023/03/28 03:06:47;;;;;;;3.75;1.40;;;5.20;99.90;;;;;;5100417;28;20044;-82
2023/03/28 03:09:14;;;;;;;4.65;1.20;;;5.30;99.90;;;;;;5099046;28;20134;-82
2023/03/28 03:11:41;;;;;;;6.25;1.50;;;5.30;99.90;;;;;;5083378;28;20051;-83
2023/03/28 03:14:08;;;;;;;5.60;1.30;;;5.30;99.90;;;;;;5083149;28;20139;-82
2023/03/28 03:16:37;;;;;;;3.58;1.25;;;5.30;99.90;;;;;;5099312;28;20047;-83
2023/03/28 03:19:06;;;;;;;5.65;1.50;;;5.30;99.90;;;;;;5083690;28;20036;-83
2023/03/28 03:21:33;;;;;;;4.72;1.10;;;5.30;99.90;;;;;;5118042;28;20084;-83
2023/03/28 03:23:59;;;;;;;10.32;1.42;;;5.40;99.90;;;;;;5085066;28;20047;-82
2023/03/28 03:26:26;;;;;;;7.50;1.70;;;5.30;99.90;;;;;;5079722;28;20044;-82
2023/03/28 03:28:59;;;;;;;;;;;5.30;99.90;;;;;;5079031;28;20043;-82
2023/03/28 03:31:26;;;;;;;5.47;1.10;;;5.40;99.90;;;;;;5062544;28;19966;-83
2023/03/28 03:34:16;;;;;;;5.97;1.50;;;5.40;99.90;;;;;;5081419;28;20044;-82
2023/03/28 03:36:48;;;;;;;7.78;1.45;;;5.40;99.90;;;;;;5062471;28;20386;-82
2023/03/28 03:39:15;;;;;;;6.05;1.90;;;5.50;99.90;;;;;;5063544;28;20044;-83
2023/03/28 03:41:42;;;;;;;3.53;1.15;;;5.40;99.90;;;;;;5062875;28;20048;-83
2023/03/28 03:44:09;;;;;;;6.65;1.20;;;5.50;99.90;;;;;;5061261;28;20043;-83
2023/03/28 03:46:35;;;;;;;6.15;1.35;;;5.50;99.90;;;;;;5079488;28;20044;-83
2023/03/28 03:49:02;;;;;;;4.60;1.40;;;5.50;99.90;;;;;;5078514;28;20048;-83
2023/03/28 03:51:29;;;;;;;5.68;1.35;;;5.50;99.90;;;;;;5061491;28;20036;-82
2023/03/28 03:53:56;;;;;;;6.43;1.35;;;5.50;99.90;;;;;;5062178;28;20068;-82
2023/03/28 03:56:30;;;;;;;4.13;1.35;;;5.50;99.90;;;;;;5077899;28;20052;-83
2023/03/28 03:58:59;;;;;;;6.05;1.30;;;5.50;99.90;;;;;;5065163;28;20044;-83
2023/03/28 04:01:29;;;;;;;4.50;1.65;;;5.50;99.90;;;;;;5099388;28;20040;-82
2023/03/28 04:04:06;;;;;;;13.40;2.03;;;5.60;99.90;;;;;;5097831;28;20074;-83
2023/03/28 04:06:52;;;;;;;6.32;1.40;;;5.60;99.90;;;;;;5099433;28;20044;-83
2023/03/28 04:09:21;;;;;;;7.70;1.60;;;5.70;99.90;;;;;;5081398;28;20047;-82
2023/03/28 04:11:54;;;;;;;9.35;1.50;;;5.80;99.90;;;;;;5083300;28;20035;-82
2023/03/28 04:14:21;;;;;;;5.22;1.27;;;5.80;99.90;;;;;;5098681;28;20040;-82
2023/03/28 04:16:52;;;;;;;5.35;1.23;;;5.80;99.90;;;;;;5098196;28;20042;-82
2023/03/28 04:19:19;;;;;;;12.57;1.42;;;5.90;99.90;;;;;;5082535;28;20044;-82
2023/03/28 04:21:47;;;;;;;7.22;1.45;;;5.90;99.90;;;;;;5098470;28;20043;-82
2023/03/28 04:24:14;;;;;;;6.97;1.17;;;5.90;99.90;;;;;;5080691;28;20051;-82
2023/03/28 04:26:54;;;;;;;3.75;1.30;;;6.00;99.90;;;;;;5082918;28;20036;-82
2023/03/28 04:29:30;;;;;;;9.75;2.30;;;6.00;99.90;;;;;;5081366;28;20047;-82
2023/03/28 04:32:20;;;;;;;6.22;1.35;;;6.00;99.90;;;;;;5098528;28;20039;-83
2023/03/28 04:35:15;;;;;;;5.50;1.08;;;6.00;99.90;;;;;;5103725;28;20044;-82
2023/03/28 04:37:46;;;;;;;8.00;1.30;;;6.00;99.90;;;;;;5082047;28;20059;-82
2023/03/28 04:40:15;;;;;;;5.28;1.60;;;6.00;99.90;;;;;;5098513;28;20138;-82
2023/03/28 04:43:07;;;;;;;11.38;2.00;;;6.10;99.90;;;;;;5097002;28;20122;-82
2023/03/28 04:45:38;;;;;;;5.88;1.60;;;6.10;99.90;;;;;;5098408;28;20043;-82
2023/03/28 04:48:15;;;;;;;7.60;1.73;;;6.10;99.90;;;;;;5098506;28;20066;-83
2023/03/28 04:50:41;;;;;;;15.93;2.28;;;6.20;99.90;;;;;;5080557;28;20035;-82
2023/03/28 04:53:08;;;;;;;4.35;1.40;;;6.20;99.90;;;;;;5115867;28;20035;-83
2023/03/28 04:55:42;;;;;;;8.55;1.30;;;6.20;99.90;;;;;;5097182;28;20150;-82
2023/03/28 04:58:18;;;;;;;5.50;1.40;;;6.20;99.90;;;;;;5098379;28;20051;-82
2023/03/28 05:00:45;;;;;;;13.02;1.40;;;6.30;99.90;;;;;;5098105;28;20043;-82
2023/03/28 05:03:30;;;;;;;5.15;1.40;;;6.30;99.90;;;;;;5099204;28;20054;-82
2023/03/28 05:06:00;;;;;;;6.60;1.50;;;6.30;99.90;;;;;;5081867;28;20071;-82
2023/03/28 05:08:28;;;;;;;6.43;1.20;;;6.30;99.90;;;;;;5081293;28;20043;-82
2023/03/28 05:10:54;;;;;;;6.60;1.35;;;6.40;99.90;;;;;;5096320;28;20055;-82
2023/03/28 05:13:22;;;;;;;6.65;1.40;;;6.40;99.90;;;;;;5080792;28;20533;-82
2023/03/28 05:16:00;;;;;;;4.10;1.27;;;6.50;99.90;;;;;;5081778;28;20088;-82
2023/03/28 05:19:02;;;;;;;8.32;1.35;;;6.50;99.90;;;;;;5103091;28;20036;-82
2023/03/28 05:21:58;;;;;;;8.10;1.55;;;6.50;99.90;;;;;;5087934;28;20051;-82
2023/03/28 05:24:25;;;;;;;7.68;1.75;;;6.50;99.90;;;;;;5080575;28;20134;-82
2023/03/28 05:26:53;;;;;;;10.38;1.50;;;6.50;99.90;;;;;;5097771;28;20480;-82
2023/03/28 05:29:22;;;;;;;7.13;1.80;;;6.50;99.90;;;;;;5097382;28;20124;-82
2023/03/28 05:31:49;;;;;;;10.40;1.45;;;6.50;99.90;;;;;;5097672;28;20035;-82
2023/03/28 05:34:28;;;;;;;12.63;1.70;;;6.50;99.90;;;;;;5097602;28;20036;-82
2023/03/28 05:36:56;;;;;;;7.05;1.35;;;6.50;99.90;;;;;;5096391;28;20427;-82
2023/03/28 05:39:26;;;;;;;11.65;1.67;;;6.50;99.90;;;;;;5081323;28;20043;-82
2023/03/28 05:42:01;;;;;;;8.80;1.67;;;6.40;99.90;;;;;;5080713;28;20058;-82
2023/03/28 05:44:27;;;;;;;8.15;1.60;;;6.40;99.90;;;;;;5096956;28;20059;-82
2023/03/28 05:47:12;;;;;;;7.55;1.88;;;6.30;99.90;;;;;;5115362;28;20049;-82
2023/03/28 05:49:39;;;;;;;5.95;1.55;;;6.20;99.90;;;;;;5096201;28;20043;-82
2023/03/28 05:52:06;;;;;;;3.70;1.23;;;6.20;99.90;;;;;;5097267;28;20035;-82
2023/03/28 05:54:32;;;;;;;13.80;2.10;;;6.10;99.90;;;;;;5096794;28;20469;-82
2023/03/28 05:56:59;;;;;;;7.75;1.52;;;6.10;99.90;;;;;;5096295;28;20049;-83
2023/03/28 05:59:26;;;;;;;6.13;1.92;;;6.10;99.90;;;;;;5097676;28;20036;-83
2023/03/28 06:01:54;;;;;;;9.27;1.88;;;6.00;99.90;;;;;;5096552;28;20039;-82
2023/03/28 06:04:21;;;;;;;5.45;1.70;;;5.90;99.90;;;;;;5080262;28;20046;-82
2023/03/28 06:06:49;;;;;;;5.40;1.60;;;5.90;99.90;;;;;;5097416;28;20123;-82
2023/03/28 06:09:22;;;;;;;9.40;1.65;;;5.90;99.90;;;;;;5080418;28;20381;-82
2023/03/28 06:11:56;;;;;;;10.15;1.75;;;5.80;99.90;;;;;;5097060;28;20040;-82
2023/03/28 06:14:23;;;;;;;4.78;1.63;;;5.80;99.90;;;;;;5096279;28;20035;-82
2023/03/28 06:16:52;;;;;;;11.82;2.13;;;5.80;99.90;;;;;;5079511;28;20526;-82
2023/03/28 06:19:19;;;;;;;13.25;1.90;;;5.70;99.90;;;;;;5097203;28;20050;-82
2023/03/28 06:21:52;;;;;;;9.23;2.03;;;5.70;99.90;;;;;;5098093;28;20046;-82
2023/03/28 06:24:19;;;;;;;5.43;1.60;;;5.70;99.90;;;;;;5095778;28;20050;-82
2023/03/28 06:26:46;;;;;;;14.52;2.03;;;5.70;99.90;;;;;;5097149;28;20063;-82
2023/03/28 06:29:18;;;;;;;8.25;1.80;;;5.70;99.90;;;;;;5079711;28;20419;-82
2023/03/28 06:31:46;;;;;;;9.15;1.95;;;5.70;99.90;;;;;;5097069;28;20102;-82
2023/03/28 06:34:13;;;;;;;10.25;1.92;;;5.70;99.90;;;;;;5096571;28;20043;-81
2023/03/28 06:36:49;;;;;;;6.68;2.38;;;5.70;99.90;;;;;;5096260;28;20048;-82
2023/03/28 06:39:16;;;;;;;11.15;2.00;;;5.80;99.90;;;;;;5096795;28;20039;-82
2023/03/28 06:41:43;;;;;;;6.43;1.85;;;5.80;99.90;;;;;;5096771;28;20044;-82
2023/03/28 06:44:10;;;;;;;5.50;1.83;;;5.80;99.90;;;;;;5078734;28;20096;-82
2023/03/28 06:46:58;;;;;;;4.63;1.50;;;5.90;99.90;;;;;;5096791;28;20039;-81
2023/03/28 06:49:26;;;;;;;7.63;1.70;;;5.90;99.90;;;;;;5095969;28;20039;-82
2023/03/28 06:52:11;;;;;;;10.50;2.38;;;6.00;99.90;;;;;;5113990;28;20481;-82
2023/03/28 06:54:40;;;;;;;9.65;2.15;;;6.00;99.90;;;;;;5096320;28;20054;-82
2023/03/28 06:57:07;;;;;;;11.38;2.42;;;6.10;99.90;;;;;;5078833;28;20043;-81
2023/03/28 06:59:36;;;;;;;10.00;2.05;;;6.10;99.90;;;;;;5096388;28;20117;-83
2023/03/28 07:02:06;;;;;;;6.93;2.42;;;6.10;99.90;;;;;;5095628;28;20546;-80
2023/03/28 07:04:34;;;;;;;6.90;2.22;;;6.10;99.90;;;;;;5075910;28;20050;-80
2023/03/28 07:07:02;;;;;;;11.50;2.10;;;6.10;99.90;;;;;;5076241;28;20066;-80
2023/03/28 07:09:30;;;;;;;9.25;2.53;;;6.20;99.90;;;;;;5057595;28;20127;-79
2023/03/28 07:12:05;;;;;;;6.95;2.30;;;6.20;99.90;;;;;;5075526;28;20044;-80
2023/03/28 07:14:32;;;;;;;8.43;2.55;;;6.30;99.90;;;;;;5046131;28;20036;-80
2023/03/28 07:17:00;;;;;;;9.40;2.10;;;6.30;99.90;;;;;;5074261;28;20036;-80
2023/03/28 07:19:26;;;;;;;10.43;2.63;;;6.30;99.90;;;;;;5076229;28;20135;-80
2023/03/28 07:21:54;;;;;;;12.48;2.28;;;6.40;99.90;;;;;;5075761;28;20055;-80
2023/03/28 07:24:22;;;;;;;11.40;2.25;;;6.40;99.90;;;;;;5045982;28;20062;-80
2023/03/28 07:27:04;;;;;;;;;;;6.40;99.90;;;;;;5078833;28;20067;-79
2023/03/28 07:29:34;;;;;;;14.90;2.05;;;6.50;99.90;;;;;;5078548;28;19919;-80
2023/03/28 07:32:01;;;;;;;11.48;2.08;;;6.50;99.90;;;;;;5079274;28;20123;-81
2023/03/28 07:34:28;;;;;;;7.38;1.85;;;6.60;99.90;;;;;;5062477;28;20051;-80
2023/03/28 07:36:56;;;;;;;6.13;2.13;;;6.70;99.90;;;;;;5078165;28;20148;-81
2023/03/28 07:39:42;;;;;;;6.13;2.25;;;6.70;99.90;;;;;;5078876;28;20132;-80
2023/03/28 07:42:14;;;;;;;9.43;2.25;;;6.70;99.90;;;;;;5078725;28;20058;-80
2023/03/28 07:44:41;;;;;;;11.40;2.63;;;6.80;99.90;;;;;;5097153;28;20130;-80
2023/03/28 07:49:53;;;;;;;11.90;2.53;;;6.90;99.90;;;;;;5078636;28;20159;-80
2023/03/28 07:52:23;;;;;;;13.32;2.63;;;7.00;99.90;;;;;;5079045;28;20044;-80
2023/03/28 07:54:50;;;;;;;11.50;3.13;;;7.10;99.90;;;;;;5077659;28;20131;-82
2023/03/28 08:00:16;;;;;;;7.15;2.40;;;7.10;99.90;;;;;;5079353;28;20072;-81
2023/03/28 08:03:00;;;;;;;11.90;2.45;;;7.20;99.90;;;;;;5078348;28;20048;-81
2023/03/28 08:05:27;;;;;;;8.80;2.42;;;7.30;99.90;;;;;;5079164;28;20056;-80
2023/03/28 08:07:55;;;;;;;11.98;2.97;;;7.30;99.90;;;;;;5079075;28;20047;-81
2023/03/28 08:10:22;;;;;;;10.05;2.38;;;7.30;99.90;;;;;;5096039;28;20055;-80
2023/03/28 08:12:49;;;;;;;13.93;2.58;;;7.40;99.90;;;;;;5061997;28;20036;-81
2023/03/28 08:15:16;;;;;;;12.95;3.38;;;7.40;99.90;;;;;;5078344;28;20046;-78
2023/03/28 08:17:44;;;;;;;12.82;2.88;;;7.50;99.90;;;;;;5062305;28;20032;-80
2023/03/28 08:20:11;;;;;;;7.90;2.40;;;7.50;99.90;;;;;;5062269;28;20044;-80
2023/03/28 08:23:01;;;;;;;17.33;3.45;;;7.50;99.90;;;;;;5070423;28;20040;-80
2023/03/28 08:25:48;;;;;;;13.38;2.63;;;7.60;99.90;;;;;;5096835;28;20055;-82
2023/03/28 08:28:20;;;;;;;10.10;2.47;;;7.70;99.90;;;;;;5078079;28;20055;-80
2023/03/28 08:30:47;;;;;;;14.02;2.88;;;7.70;99.90;;;;;;5077590;28;20044;-80
2023/03/28 08:33:14;;;;;;;13.73;2.50;;;7.80;99.90;;;;;;5078258;28;20565;-81
2023/03/28 08:35:41;;;;;;;9.95;2.35;;;7.80;99.90;;;;;;5060732;28;20102;-80
2023/03/28 08:38:14;;;;;;;12.52;2.65;;;7.90;99.90;;;;;;5077784;28;20039;-81
2023/03/28 08:40:42;;;;;;;13.23;3.15;;;7.90;99.90;;;;;;5061670;28;20055;-80
2023/03/28 08:43:15;;;;;;;13.48;2.85;;;7.90;99.90;;;;;;5060919;28;20040;-80
2023/03/28 08:45:42;;;;;;;11.60;2.40;;;7.90;99.90;;;;;;5095938;28;20036;-81
2023/03/28 08:48:09;;;;;;;10.82;2.47;;;7.90;99.90;;;;;;5077984;28;20044;-80
2023/03/28 08:50:36;;;;;;;10.25;2.28;;;7.90;99.90;;;;;;5076985;28;20044;-80
2023/03/28 08:53:04;;;;;;;19.45;2.83;;;7.90;99.90;;;;;;5077643;28;20471;-80
2023/03/28 08:55:31;;;;;;;11.60;2.53;;;8.00;99.90;;;;;;5094601;28;20044;-80
2023/03/28 08:57:58;;;;;;;8.57;2.15;;;8.10;99.90;;;;;;5078059;28;20440;-80
2023/03/28 09:00:26;;;;;;;6.32;2.30;;;8.20;99.90;;;;;;5078113;28;20040;-80
2023/03/28 09:02:53;;;;;;;9.05;2.40;;;8.20;99.90;;;;;;5076412;28;20131;-80
2023/03/28 09:05:20;;;;;;;9.27;2.72;;;8.30;99.90;;;;;;5077727;28;20040;-80
2023/03/28 09:07:58;;;;;;;11.23;2.58;;;8.30;99.90;;;;;;5077969;28;20048;-81
2023/03/28 09:10:25;;;;;;;9.52;2.20;;;8.30;99.90;;;;;;5076752;28;20054;-82
2023/03/28 09:13:07;;;;;;;10.00;3.08;;;8.30;99.90;;;;;;5077482;28;20054;-81
2023/03/28 09:15:34;;;;;;;12.80;2.60;;;8.30;99.90;;;;;;5076617;28;20052;-81
2023/03/28 09:18:01;;;;;;;10.00;2.17;;;8.30;99.90;;;;;;5077544;28;20064;-81
2023/03/28 09:20:28;;;;;;;10.18;2.50;;;8.20;99.90;;;;;;5077133;28;20059;-81
2023/03/28 09:23:05;;;;;;;10.30;2.80;;;8.30;99.90;;;;;;5076098;28;20044;-82
2023/03/28 09:26:00;;;;;;;8.75;2.30;;;8.30;99.90;;;;;;5095342;28;20413;-81
2023/03/28 09:28:31;;;;;;;10.38;2.72;;;8.30;99.90;;;;;;5077471;28;20051;-81
2023/03/28 09:30:57;;;;;;;8.18;2.40;;;8.40;99.90;;;;;;5059715;28;20070;-81
2023/03/28 09:33:25;;;;;;;11.73;3.05;;;8.30;99.90;;;;;;5076911;28;20044;-81
2023/03/28 09:35:51;;;;;;;13.38;2.65;;;8.40;99.90;;;;;;5076297;28;20044;-81
2023/03/28 09:38:18;;;;;;;13.10;2.83;;;8.40;99.90;;;;;;5077514;28;20113;-81
2023/03/28 09:40:48;;;;;;;15.68;2.50;;;8.40;99.90;;;;;;5061138;28;20107;-81
2023/03/28 09:43:38;;;;;;;11.48;2.30;;;8.50;99.90;;;;;;5093520;28;20131;-81
2023/03/28 09:46:19;;;;;;;8.88;1.98;;;8.50;99.90;;;;;;5077214;28;20036;-81
2023/03/28 09:48:52;;;;;;;9.70;2.53;;;8.50;99.90;;;;;;5093712;28;20071;-81
2023/03/28 09:51:23;;;;;;;8.38;2.15;;;8.50;99.90;;;;;;5076628;28;20058;-81
2023/03/28 09:53:51;;;;;;;14.10;2.72;;;8.50;99.90;;;;;;5060422;28;20126;-81
2023/03/28 09:56:18;;;;;;;11.43;2.28;;;8.60;99.90;;;;;;5075814;28;20059;-81
2023/03/28 09:58:45;;;;;;;9.88;2.17;;;8.60;99.90;;;;;;5077370;28;20048;-81
2023/03/28 10:01:19;;;;;;;5.65;2.20;;;8.50;99.90;;;;;;5097323;28;20032;-81
2023/03/28 10:04:09;;;;;;;10.48;2.03;;;8.50;99.90;;;;;;5075400;28;20444;-80
2023/03/28 10:06:58;;;;;;;5.65;1.85;;;8.50;99.90;;;;;;5083041;28;20048;-82
2023/03/28 10:09:25;;;;;;;9.55;2.10;;;8.40;99.90;;;;;;5056078;28;20047;-81
2023/03/28 10:11:58;;;;;;;11.20;2.30;;;8.40;99.90;;;;;;5047299;28;20357;-81
2023/03/28 10:14:30;;;;;;;8.75;2.05;;;8.30;99.90;;;;;;5075857;28;20048;-83
2023/03/28 10:16:58;;;;;;;7.88;1.80;;;8.20;99.90;;;;;;5051482;28;20135;-84
2023/03/28 10:19:36;;;;;;;12.43;2.58;;;8.20;99.90;;;;;;5093694;28;20040;-84
2023/03/28 10:22:14;;;;;;;5.75;1.70;;;8.20;99.90;;;;;;5062110;28;20075;-83
2023/03/28 10:24:46;;;;;;;;;;;8.20;99.90;;;;;;5072806;28;20072;-83
2023/03/28 10:27:13;;;;;;;8.90;1.75;;;8.10;99.90;;;;;;5079781;28;20019;-83
2023/03/28 10:29:40;;;;;;;8.43;1.98;;;8.00;99.90;;;;;;5055239;28;20083;-82
2023/03/28 10:32:06;;;;;;;7.50;1.88;;;7.90;99.90;;;;;;5064798;28;20036;-84
2023/03/28 10:34:41;;;;;;;11.57;2.30;;;7.80;99.90;;;;;;5075705;28;20086;-82
2023/03/28 10:37:15;;;;;;;8.20;1.77;;;7.70;99.90;;;;;;5075038;28;20366;-81
2023/03/28 10:39:50;;;;;;;9.40;2.53;;;7.70;99.90;;;;;;5060439;28;20074;-82
2023/03/28 10:42:35;;;;;;;7.20;1.67;;;7.70;99.90;;;;;;5092109;28;20130;-82
2023/03/28 10:45:15;;;;;;;7.18;1.70;;;7.60;99.90;;;;;;5075886;28;20052;-81
2023/03/28 10:47:41;;;;;;;7.75;1.50;;;7.60;99.90;;;;;;5075110;28;20044;-81
2023/03/28 10:50:08;;;;;;;6.63;1.95;;;7.60;99.90;;;;;;5092187;28;20040;-83
2023/03/28 10:52:35;;;;;;;12.32;2.00;;;7.60;99.90;;;;;;5075223;28;20094;-83
2023/03/28 10:55:02;;;;;;;6.20;1.58;;;7.70;99.90;;;;;;5055700;28;20056;-83
2023/03/28 10:57:49;;;;;;;6.43;1.60;;;7.70;99.90;;;;;;5072105;28;20048;-83
2023/03/28 11:00:17;;;;;;;8.65;2.15;;;7.80;99.90;;;;;;5055969;28;20332;-83
2023/03/28 11:02:44;;;;;;;6.05;1.88;;;7.90;99.90;;;;;;5073658;28;20495;-83
2023/03/28 11:05:20;;;;;;;7.18;1.60;;;7.90;99.90;;;;;;5075867;28;20098;-81
2023/03/28 11:07:47;;;;;;;4.75;1.50;;;7.80;99.90;;;;;;5075735;28;20071;-80
2023/03/28 11:10:30;;;;;;;8.27;1.88;;;7.90;99.90;;;;;;5053869;28;20048;-81
2023/03/28 11:13:01;;;;;;;6.93;1.40;;;7.80;99.90;;;;;;5051627;28;20053;-81
2023/03/28 11:15:35;;;;;;;9.95;1.67;;;7.80;99.90;;;;;;5058178;28;20312;-82
2023/03/28 11:18:12;;;;;;;6.78;1.90;;;7.90;99.90;;;;;;5058930;28;20424;-81
2023/03/28 11:20:45;;;;;;;9.52;2.20;;;7.80;99.90;;;;;;5059045;28;20055;-82
2023/03/28 11:23:13;;;;;;;7.50;1.88;;;7.90;99.90;;;;;;5053310;28;20079;-81
2023/03/28 11:25:51;;;;;;;6.78;1.85;;;7.90;99.90;;;;;;5075489;28;20479;-81
2023/03/28 11:28:50;;;;;;;11.50;2.30;;;7.90;99.90;;;;;;5042325;28;20052;-79
2023/03/28 11:31:19;;;;;;;8.63;2.35;;;7.90;99.90;;;;;;5059240;28;20135;-79
2023/03/28 11:33:55;;;;;;;8.52;1.63;;;8.00;99.90;;;;;;5075559;28;20538;-80
2023/03/28 11:36:23;;;;;;;6.55;2.30;;;8.00;99.90;;;;;;5058647;28;20064;-81
2023/03/28 11:38:50;;;;;;;9.68;1.83;;;8.00;99.90;;;;;;5075288;28;20040;-81
2023/03/28 11:41:17;;;;;;;6.32;1.95;;;8.00;99.90;;;;;;5075818;28;20048;-80
2023/03/28 11:44:06;;;;;;;6.30;2.25;;;7.80;99.90;;;;;;5074381;28;20064;-80
2023/03/28 11:46:33;;;;;;;6.68;1.90;;;7.70;99.90;;;;;;5075137;28;20048;-79
2023/03/28 11:49:00;;;;;;;7.13;1.60;;;7.60;99.90;;;;;;5058013;28;20044;-82
2023/03/28 11:51:30;;;;;;;6.40;1.80;;;7.60;99.90;;;;;;5058888;28;20048;-82
2023/03/28 11:53:59;;;;;;;6.35;1.60;;;7.50;99.90;;;;;;5058229;28;20135;-82
2023/03/28 11:56:29;;;;;;;7.90;2.30;;;7.40;99.90;;;;;;5047606;28;20069;-81
2023/03/28 11:59:04;;;;;;;7.72;2.25;;;7.30;99.90;;;;;;5046254;28;20071;-83
2023/03/28 12:01:31;;;;;;;7.20;1.67;;;7.30;99.90;;;;;;5095094;28;20044;-83
2023/03/28 12:03:58;;;;;;;5.97;1.75;;;7.30;99.90;;;;;;5070202;28;20425;-82
2023/03/28 12:06:26;;;;;;;11.15;2.35;;;7.20;99.90;;;;;;5048705;28;20041;-81
2023/03/28 12:08:52;;;;;;;7.70;1.70;;;7.20;99.90;;;;;;5060218;28;20493;-81
2023/03/28 12:11:20;;;;;;;8.75;1.60;;;7.10;99.90;;;;;;5075171;28;20040;-80
2023/03/28 12:14:00;;;;;;;10.10;2.03;;;7.10;99.90;;;;;;5059091;28;20421;-80
2023/03/28 12:16:42;;;;;;;6.10;2.10;;;7.00;99.90;;;;;;5058352;28;20075;-80
2023/03/28 12:19:10;;;;;;;5.53;1.65;;;7.00;99.90;;;;;;5041885;28;20064;-79
2023/03/28 12:21:45;;;;;;;6.68;2.10;;;7.00;99.90;;;;;;5042742;28;20074;-80
2023/03/28 12:24:17;;;;;;;9.93;1.83;;;7.10;99.90;;;;;;5041183;28;20044;-80
2023/03/28 12:26:52;;;;;;;6.30;1.90;;;7.10;99.90;;;;;;5057950;28;20055;-80
2023/03/28 12:29:24;;;;;;;8.15;2.17;;;7.20;99.90;;;;;;5057366;28;20109;-80
2023/03/28 12:31:51;;;;;;;10.35;2.45;;;7.30;99.90;;;;;;5057506;28;20055;-80
2023/03/28 12:34:22;;;;;;;10.68;2.08;;;7.40;99.90;;;;;;5058241;28;20072;-81
2023/03/28 12:37:11;;;;;;;5.82;1.70;;;7.60;99.90;;;;;;5056672;28;20047;-81
2023/03/28 12:39:39;;;;;;;7.05;1.65;;;7.60;99.90;;;;;;5058503;28;20135;-80
2023/03/28 12:42:15;;;;;;;5.22;1.70;;;7.70;99.90;;;;;;5056029;28;20413;-81
2023/03/28 12:44:42;;;;;;;9.52;1.83;;;7.60;99.90;;;;;;5057346;28;20055;-81
2023/03/28 12:47:09;;;;;;;8.07;1.75;;;7.70;99.90;;;;;;5058038;28;20090;-81
2023/03/28 12:49:38;;;;;;;6.53;1.80;;;7.70;99.90;;;;;;5056762;28;20040;-81
2023/03/28 12:52:07;;;;;;;9.93;1.98;;;7.80;99.90;;;;;;5057064;28;20429;-82
2023/03/28 12:54:34;;;;;;;6.65;2.10;;;7.80;99.90;;;;;;5040809;28;20040;-82
2023/03/28 12:57:07;;;;;;;6.50;2.00;;;7.90;99.90;;;;;;5056909;28;20036;-81
2023/03/28 12:59:42;;;;;;;9.23;1.90;;;7.80;99.90;;;;;;5041818;28;20061;-83
2023/03/28 13:02:19;;;;;;;7.40;1.67;;;7.80;99.90;;;;;;5056443;28;20414;-85
2023/03/28 13:04:55;;;;;;;6.97;1.63;;;7.80;99.90;;;;;;5042284;28;20127;-84
2023/03/28 13:07:24;;;;;;;10.77;1.98;;;7.80;99.90;;;;;;5057272;28;20056;-83
2023/03/28 13:09:50;;;;;;;5.90;1.80;;;7.80;99.90;;;;;;5040131;28;20482;-83
2023/03/28 13:12:17;;;;;;;6.90;1.73;;;7.80;99.90;;;;;;5057319;28;20050;-83
2023/03/28 13:14:44;;;;;;;8.45;1.92;;;7.70;99.90;;;;;;5040379;28;20040;-84
2023/03/28 13:17:12;;;;;;;9.25;2.03;;;7.70;99.90;;;;;;5056630;28;20178;-82
2023/03/28 13:19:39;;;;;;;9.60;2.15;;;7.70;99.90;;;;;;5057294;28;20033;-79
2023/03/28 13:22:05;;;;;;;7.47;2.00;;;7.70;99.90;;;;;;5069341;28;20062;-79